LOWL/LNZ METAR and TAF weather

Enter ICAO airport designator
Station Type Date Time Source
LOWL METAR 2020/02/19 14:20 UTC NOAA

LOWL 191420Z 30019KT 4700 -SHRA FEW007 SCT013 BKN017 03/02 Q1019 RERA BECMG 9999


Station Type Date Time Source
LOWL Decoded METAR 2020/02/19 14:20 UTC NOAA

Linz / Hoersching-Flughafen, Austria (LOWL) 48-14N 014-11E 313M
Feb 19, 2020 - 09:20 AM EST / 2020.02.19 1420 UTC
Wind: from the WNW (300 degrees) at 22 MPH (19 KT):0
Visibility: 2 mile(s):0
Sky conditions: mostly cloudy
Weather: light rain showers
Temperature: 37 F (3 C)
Dew Point: 35 F (2 C)
Relative Humidity: 93%
Pressure (altimeter): 30.09 in. Hg (1019 hPa)
ob: LOWL 191420Z 30019KT 4700 -SHRA FEW007 SCT013 BKN017 03/02 Q1019 RERA BECMG 9999
cycle: 14

Station Type Date Time Source
LOWL TAF 2020/02/19 12:21 UTC NOAA

TAF TAF LOWL 191115Z 1912/2012 26010KT 9999 FEW040 BKN060 TX09/1912Z TN01/2006Z
TEMPO 1912/1920 27020G30KT SHRA BKN020 PROB30
TEMPO 1920/1924 28015G25KT 3000 -SHSN BKN020
BECMG 2002/2004 25004KT SCT060

Example: see airport list